createdAt,value
2018-06-10T00:12:44.436Z,276.20
2018-06-10T00:15:25.914Z,364.23
2018-06-10T00:18:05.192Z,434.40
2018-06-10T00:20:45.594Z,328.87
2018-06-10T00:23:25.750Z,216.80
2018-06-10T00:26:05.693Z,180.67
2018-06-10T00:28:48.095Z,188.93
2018-06-10T00:31:27.519Z,193.57
2018-06-10T00:34:06.517Z,198.67
2018-06-10T00:36:45.152Z,216.60
2018-06-10T00:39:23.193Z,210.60
2018-06-10T00:42:02.829Z,281.03
2018-06-10T00:44:41.990Z,238.70
2018-06-10T00:47:18.812Z,226.67
2018-06-10T00:49:57.279Z,277.80
2018-06-10T00:52:38.339Z,240.93
2018-06-10T00:55:19.390Z,266.87
2018-06-10T00:57:58.015Z,241.53
2018-06-10T01:00:37.191Z,190.40
2018-06-10T01:03:15.894Z,325.07
2018-06-10T01:05:57.592Z,420.03
2018-06-10T01:08:36.614Z,466.23
2018-06-10T01:11:16.269Z,518.97
2018-06-10T01:13:54.934Z,369.73
2018-06-10T01:16:33.155Z,241.03
2018-06-10T01:19:13.876Z,222.67
2018-06-10T01:21:53.331Z,301.83
2018-06-10T01:24:34.274Z,204.43
2018-06-10T01:27:13.872Z,167.93
2018-06-10T01:29:53.056Z,151.73
2018-06-10T01:32:32.313Z,139.67
2018-06-10T01:35:13.594Z,152.30
2018-06-10T01:37:52.054Z,160.47
2018-06-10T01:40:31.018Z,161.73
2018-06-10T01:43:09.295Z,156.20
2018-06-10T01:45:48.902Z,153.33
2018-06-10T03:02:45.720Z,195.13
2018-06-10T03:05:24.684Z,185.70
2018-06-10T03:08:04.016Z,175.93
2018-06-10T03:10:43.219Z,257.80
2018-06-10T03:13:22.399Z,326.27
2018-06-10T03:16:03.318Z,311.17
2018-06-10T03:18:42.481Z,282.60
2018-06-10T03:21:21.660Z,244.07
2018-06-10T03:24:00.142Z,266.57
2018-06-10T03:26:39.733Z,288.70
2018-06-10T03:29:18.682Z,229.57
2018-06-10T03:31:57.600Z,179.53
2018-06-10T03:34:36.498Z,139.43
2018-06-10T03:37:17.163Z,168.97
2018-06-10T03:39:56.546Z,236.73
2018-06-10T03:42:38.181Z,167.33
2018-06-10T03:45:17.953Z,134.07
2018-06-10T03:47:58.300Z,153.37
2018-06-10T03:50:38.476Z,202.00
2018-06-10T03:53:18.062Z,194.73
2018-06-10T03:55:57.845Z,195.77
2018-06-10T03:58:36.698Z,199.43
2018-06-10T04:01:17.601Z,354.53
2018-06-10T04:03:56.919Z,379.97
2018-06-10T04:06:35.999Z,199.00
2018-06-10T04:09:19.580Z,166.60
2018-06-10T04:12:00.136Z,209.40
2018-06-10T04:14:40.282Z,294.77
2018-06-10T04:17:20.205Z,257.53
2018-06-10T04:19:57.841Z,251.33
2018-06-10T04:22:36.683Z,228.37
2018-06-10T04:25:17.879Z,262.50
2018-06-10T04:27:58.482Z,257.30
2018-06-10T04:30:35.885Z,306.33
2018-06-10T04:33:15.058Z,748.47
2018-06-10T04:35:54.098Z,628.43
2018-06-10T04:38:34.276Z,585.00
2018-06-10T04:41:18.642Z,899.50
2018-06-10T04:43:57.518Z,574.20
2018-06-10T04:46:38.682Z,536.90
2018-06-10T04:49:18.595Z,430.77
2018-06-10T04:51:59.400Z,530.17
2018-06-10T04:54:39.437Z,566.67
2018-06-10T04:57:21.460Z,633.80
2018-06-10T05:00:00.884Z,650.93
2018-06-10T05:02:40.183Z,655.77
2018-06-10T05:05:19.497Z,278.17
2018-06-10T05:07:58.238Z,684.37
2018-06-10T05:10:38.638Z,693.43
2018-06-10T05:13:17.716Z,672.77
2018-06-10T05:15:56.861Z,589.53
2018-06-10T05:18:36.958Z,468.37
2018-06-10T05:21:16.337Z,665.20
2018-06-10T05:23:56.022Z,781.47
2018-06-10T05:26:36.176Z,752.60
2018-06-10T05:29:16.335Z,657.83
2018-06-10T05:31:58.835Z,245.90
2018-06-10T05:34:40.797Z,518.10
2018-06-10T05:37:21.399Z,419.93
2018-06-10T05:40:00.873Z,643.77
2018-06-10T05:42:40.923Z,672.97
2018-06-10T05:45:20.687Z,469.77
2018-06-10T05:48:00.198Z,625.93
2018-06-10T05:50:40.197Z,781.93
2018-06-10T05:53:22.938Z,693.60
2018-06-10T05:56:02.322Z,598.37
2018-06-10T05:58:41.282Z,747.40
2018-06-10T06:01:19.447Z,747.23
2018-06-10T06:03:58.501Z,471.63
2018-06-10T06:06:36.843Z,406.40
2018-06-10T06:09:20.499Z,332.77
2018-06-10T06:11:59.958Z,617.23
2018-06-10T06:14:38.118Z,417.80
2018-06-10T06:17:18.961Z,407.33
2018-06-10T06:19:56.598Z,561.67
2018-06-10T06:22:37.499Z,627.83
2018-06-10T06:25:16.041Z,704.20
2018-06-10T06:27:56.639Z,999.90
2018-06-10T06:30:37.617Z,882.57
2018-06-10T06:33:18.266Z,983.53
2018-06-10T06:35:57.227Z,709.57
2018-06-10T06:38:38.142Z,999.90
2018-06-10T06:41:24.566Z,999.90
2018-06-10T06:44:06.917Z,999.90
2018-06-10T06:46:46.157Z,999.90
2018-06-10T06:49:25.819Z,999.90
2018-06-10T06:52:07.976Z,999.90
2018-06-10T06:54:47.581Z,998.40
2018-06-10T06:57:28.611Z,821.67
2018-06-10T07:00:13.257Z,472.40
2018-06-10T07:02:52.283Z,514.80
2018-06-10T07:05:30.061Z,669.80
2018-06-10T07:08:13.925Z,999.90
2018-06-10T07:11:01.684Z,769.40
2018-06-10T07:13:43.844Z,362.03
2018-06-10T07:16:23.037Z,898.47
2018-06-10T07:28:35.478Z,894.17
2018-06-10T07:31:13.859Z,659.80
2018-06-10T07:33:56.161Z,228.22
2018-06-10T07:36:38.443Z,69.72
2018-06-10T07:39:18.617Z,149.32
2018-06-10T07:41:57.438Z,71.82
2018-06-10T07:44:37.878Z,70.92
2018-06-10T07:47:22.802Z,61.00
2018-06-10T07:50:04.564Z,64.05
2018-06-10T07:52:41.806Z,60.00
2018-06-10T07:55:19.575Z,83.22
2018-06-10T07:58:53.840Z,111.12
2018-06-10T08:01:33.103Z,191.10
2018-06-10T08:04:19.245Z,294.10
2018-06-10T08:07:02.336Z,240.97
2018-06-10T08:09:39.442Z,116.53
2018-06-10T08:12:25.521Z,108.80
2018-06-10T08:15:02.348Z,114.70
2018-06-10T08:17:46.003Z,109.03
2018-06-10T08:20:38.904Z,92.27
2018-06-10T08:23:38.224Z,76.67
2018-06-10T08:33:35.264Z,60.17
2018-06-10T08:36:24.947Z,61.02
2018-06-10T08:39:04.401Z,52.73
2018-06-10T08:41:44.939Z,61.73
2018-06-10T08:44:22.978Z,55.25
2018-06-10T08:47:00.821Z,60.23
2018-06-10T08:49:46.082Z,64.00
2018-06-10T08:52:34.855Z,72.85
2018-06-10T08:55:12.678Z,69.53
2018-06-10T08:57:52.863Z,71.87
2018-06-10T09:31:07.213Z,68.87
2018-06-10T09:37:33.341Z,105.85
2018-06-10T09:40:13.012Z,212.15
2018-06-10T09:42:50.827Z,262.08
2018-06-10T09:45:30.464Z,268.45
2018-06-10T09:48:09.103Z,160.22
2018-06-10T09:50:54.340Z,72.20
2018-06-10T09:53:40.162Z,86.65
2018-06-10T09:56:20.081Z,93.80
2018-06-10T09:58:59.095Z,88.22
2018-06-10T10:04:58.020Z,62.80
2018-06-10T10:07:36.780Z,85.38
2018-06-10T10:10:26.144Z,62.00
2018-06-10T10:13:06.025Z,54.33
2018-06-10T10:15:44.342Z,39.45
2018-06-10T10:18:32.003Z,43.10
2018-06-10T10:21:19.342Z,52.75
2018-06-10T10:23:59.887Z,38.17
2018-06-10T10:29:54.302Z,41.70
2018-06-10T10:32:37.881Z,43.60
2018-06-10T10:35:15.945Z,42.30
2018-06-10T10:38:01.440Z,49.15
2018-06-10T10:40:38.357Z,49.25
2018-06-10T10:43:21.246Z,58.98
2018-06-10T10:45:59.679Z,57.95
2018-06-10T10:48:40.763Z,55.45
2018-06-10T10:51:24.042Z,55.45
2018-06-10T10:54:06.661Z,55.75
2018-06-10T10:56:49.978Z,60.10
2018-06-10T10:59:43.638Z,61.42
2018-06-10T11:02:21.726Z,62.95
2018-06-10T11:05:00.640Z,68.33
2018-06-10T11:07:47.461Z,58.05
2018-06-10T11:16:41.317Z,66.75
2018-06-10T11:19:19.062Z,64.07
2018-06-10T11:21:58.137Z,72.53
2018-06-10T11:24:39.300Z,72.92
2018-06-10T11:27:23.990Z,75.30
2018-06-10T11:30:11.658Z,72.53
2018-06-10T11:32:52.856Z,64.92
2018-06-10T11:35:30.462Z,61.77
2018-06-10T11:38:12.444Z,78.50
2018-06-10T11:40:52.242Z,94.70
2018-06-10T11:43:34.582Z,72.75
2018-06-10T11:49:24.543Z,87.92
2018-06-10T11:52:05.111Z,85.12
2018-06-10T11:54:44.058Z,82.82
2018-06-10T11:57:29.480Z,100.33
2018-06-10T12:00:14.160Z,115.10
2018-06-10T12:03:00.862Z,515.75
2018-06-10T12:05:50.017Z,101.25
2018-06-10T12:08:34.730Z,65.20
2018-06-10T12:11:17.441Z,55.17
2018-06-10T12:13:56.737Z,62.98
2018-06-10T12:16:39.262Z,64.20
2018-06-10T12:19:19.124Z,56.95
2018-06-10T12:21:58.998Z,65.00
2018-06-10T12:24:36.955Z,67.00
2018-06-10T12:27:15.976Z,62.25
2018-06-10T12:29:57.895Z,58.70
2018-06-10T12:32:37.578Z,54.03
2018-06-10T12:35:32.454Z,52.15
2018-06-10T12:38:10.540Z,50.05
2018-06-10T12:44:20.133Z,73.83
2018-06-10T12:47:14.491Z,67.87
2018-06-10T12:50:10.710Z,62.10
2018-06-10T12:52:49.459Z,59.35
2018-06-10T12:55:28.745Z,66.53
2018-06-10T12:58:15.603Z,65.05
2018-06-10T13:01:01.867Z,67.22
2018-06-10T13:03:44.128Z,52.30
2018-06-10T13:06:30.465Z,49.88
2018-06-10T13:09:12.372Z,50.95
2018-06-10T13:11:58.154Z,54.53
2018-06-10T13:14:34.700Z,53.13
2018-06-10T13:17:16.994Z,52.23
2018-06-10T13:19:59.866Z,54.15
2018-06-10T13:22:45.546Z,56.20
2018-06-10T13:25:25.644Z,58.05
2018-06-10T13:28:03.805Z,56.05
2018-06-10T13:30:43.331Z,55.45
2018-06-10T13:33:24.068Z,55.73
2018-06-10T13:36:06.926Z,60.63
2018-06-10T13:38:45.921Z,59.25
2018-06-10T13:41:29.171Z,62.33
2018-06-10T13:44:07.067Z,60.43
2018-06-10T13:46:45.648Z,62.03
2018-06-10T13:49:24.824Z,53.68
2018-06-10T13:52:07.745Z,57.70
2018-06-10T13:54:51.548Z,50.30
2018-06-10T13:57:32.362Z,62.13
2018-06-10T14:00:16.944Z,55.70
2018-06-10T14:02:55.269Z,62.05
2018-06-10T14:05:43.444Z,55.25
2018-06-10T14:08:34.327Z,61.30
2018-06-10T14:11:17.748Z,65.20
2018-06-10T14:13:58.492Z,68.15
2018-06-10T14:16:39.149Z,65.30
2018-06-10T14:19:17.109Z,66.65
2018-06-10T14:22:01.226Z,63.73
2018-06-10T14:25:02.127Z,60.75
2018-06-10T14:27:45.506Z,65.05
2018-06-10T14:30:28.451Z,71.62
2018-06-10T14:33:08.225Z,69.45
2018-06-10T14:35:51.306Z,63.42
2018-06-10T14:38:40.401Z,62.58
2018-06-10T14:41:23.371Z,61.28
2018-06-10T14:44:04.491Z,68.70
2018-06-10T14:46:46.746Z,67.00
2018-06-10T14:49:27.358Z,65.12
2018-06-10T14:52:06.908Z,58.33
2018-06-10T14:57:48.129Z,64.35
2018-06-10T15:00:38.364Z,61.73
2018-06-10T15:03:19.088Z,62.88
2018-06-10T15:06:06.754Z,79.47
2018-06-10T15:08:44.910Z,66.65
2018-06-10T15:11:26.827Z,63.38
2018-06-10T15:14:06.906Z,82.05
2018-06-10T15:16:45.605Z,60.85
2018-06-10T15:19:29.242Z,76.85
2018-06-10T15:22:17.208Z,64.75
2018-06-10T15:24:55.988Z,63.35
2018-06-10T15:27:37.283Z,52.73
2018-06-10T15:30:20.750Z,51.85
2018-06-10T15:33:02.706Z,49.98
2018-06-10T15:35:57.441Z,47.90
2018-06-10T15:38:38.628Z,53.80
2018-06-10T15:41:23.153Z,50.78
2018-06-10T15:44:08.330Z,52.78
2018-06-10T15:46:51.969Z,55.85
2018-06-10T15:49:30.687Z,56.92
2018-06-10T15:52:22.164Z,55.25
2018-06-10T15:55:04.166Z,57.33
2018-06-10T15:57:47.532Z,55.33
2018-06-10T16:00:27.789Z,56.80
2018-06-10T16:03:07.322Z,58.10
2018-06-10T16:05:52.575Z,54.48
2018-06-10T16:08:35.426Z,56.23
2018-06-10T16:11:12.971Z,58.38
2018-06-10T16:13:51.812Z,54.73
2018-06-10T16:16:30.266Z,52.00
2018-06-10T16:19:08.042Z,52.58
2018-06-10T16:21:51.261Z,51.90
2018-06-10T16:24:41.482Z,57.85
2018-06-10T16:27:19.760Z,55.17
2018-06-10T16:29:58.727Z,49.15
2018-06-10T16:32:40.326Z,53.58
2018-06-10T16:35:19.570Z,48.87
2018-06-10T16:38:01.988Z,41.92
2018-06-10T16:40:50.766Z,40.58
2018-06-10T16:43:36.924Z,43.35
2018-06-10T16:46:13.512Z,47.80
2018-06-10T16:48:50.790Z,52.30
2018-06-10T16:51:30.862Z,53.50
2018-06-10T16:54:09.248Z,58.98
2018-06-10T16:56:49.085Z,63.52
2018-06-10T16:59:29.032Z,58.30
2018-06-10T17:02:17.793Z,56.40
2018-06-10T17:04:56.048Z,61.75
2018-06-10T17:07:36.622Z,63.05
2018-06-10T17:10:18.651Z,60.30
2018-06-10T17:13:05.583Z,54.77
2018-06-10T17:15:49.585Z,47.17
2018-06-10T17:18:37.024Z,45.92
2018-06-10T17:21:21.698Z,38.25
2018-06-10T17:23:59.209Z,42.65
2018-06-10T17:26:39.169Z,36.13
2018-06-10T17:29:19.606Z,37.05
2018-06-10T17:32:00.011Z,34.80
2018-06-10T17:34:45.617Z,47.65
2018-06-10T17:37:25.326Z,48.83
2018-06-10T17:40:06.629Z,50.08
2018-06-10T17:42:48.081Z,47.73
2018-06-10T17:45:27.283Z,39.03
2018-06-10T17:48:07.945Z,211.10
2018-06-10T17:51:02.571Z,69.12
2018-06-10T17:53:40.817Z,68.95
2018-06-10T17:56:21.563Z,118.97
2018-06-10T17:59:00.285Z,129.12
2018-06-10T18:01:40.550Z,288.95
2018-06-10T18:04:19.328Z,221.05
2018-06-10T18:06:59.147Z,334.80
2018-06-10T18:09:41.681Z,271.98
2018-06-10T18:12:20.288Z,382.23
2018-06-10T18:14:59.663Z,310.13
2018-06-10T18:17:39.127Z,295.25
2018-06-10T18:20:23.047Z,498.23
2018-06-10T18:23:16.784Z,565.20
2018-06-10T18:25:55.190Z,681.60
2018-06-10T18:28:37.165Z,713.92
2018-06-10T18:31:17.285Z,669.37
2018-06-10T18:33:59.454Z,690.05
2018-06-10T18:36:48.710Z,602.80
2018-06-10T18:39:29.451Z,598.90
2018-06-10T18:42:10.727Z,592.45
2018-06-10T18:44:51.005Z,359.05
2018-06-10T18:47:32.590Z,314.93
2018-06-10T18:50:12.292Z,269.23
2018-06-10T18:53:02.024Z,359.48
2018-06-10T18:55:40.808Z,283.50
2018-06-10T18:58:19.922Z,184.87
2018-06-10T19:01:00.372Z,251.20
2018-06-10T19:03:43.265Z,116.08
2018-06-10T19:06:22.986Z,97.72
2018-06-10T19:09:02.867Z,107.07
2018-06-10T19:11:46.552Z,73.25
2018-06-10T19:14:33.586Z,607.33
2018-06-10T19:17:12.122Z,190.10
2018-06-10T19:19:53.948Z,510.93
2018-06-10T19:22:37.890Z,500.90
2018-06-10T19:25:21.126Z,127.73
2018-06-10T19:28:03.353Z,594.40
2018-06-10T19:30:43.630Z,189.00
2018-06-10T19:33:28.967Z,115.00
2018-06-10T19:36:06.731Z,126.83
2018-06-10T19:38:44.588Z,156.60
2018-06-10T19:41:23.708Z,188.37
2018-06-10T19:44:04.645Z,193.77
2018-06-10T19:46:43.270Z,211.50
2018-06-10T19:49:22.400Z,283.07
2018-06-10T19:52:04.437Z,385.80
2018-06-10T19:54:43.369Z,508.30
2018-06-10T19:57:22.608Z,785.53
2018-06-10T20:00:09.590Z,358.17
2018-06-10T20:02:48.651Z,840.80
2018-06-10T20:05:29.347Z,810.50
2018-06-10T20:08:08.883Z,642.67
2018-06-10T20:10:47.346Z,419.83
2018-06-10T20:16:32.425Z,547.60
2018-06-10T20:19:14.071Z,582.53
2018-06-10T20:21:53.390Z,623.10
2018-06-10T20:24:31.134Z,691.40
2018-06-10T20:27:17.781Z,740.43
2018-06-10T20:29:56.643Z,898.80
2018-06-10T20:32:38.185Z,897.70
2018-06-10T20:35:20.003Z,999.90
2018-06-10T20:37:59.887Z,999.90
2018-06-10T20:40:37.429Z,999.90
2018-06-10T20:43:18.123Z,999.90
2018-06-10T20:45:58.522Z,999.90
2018-06-10T20:48:38.969Z,999.90
2018-06-10T20:51:25.811Z,999.90
2018-06-10T20:54:07.752Z,999.90
2018-06-10T20:56:49.187Z,999.90
2018-06-10T20:59:29.609Z,999.90
2018-06-10T21:02:09.949Z,999.90
2018-06-10T21:04:50.525Z,999.90
2018-06-10T21:07:43.248Z,999.90
2018-06-10T21:10:24.170Z,999.90
2018-06-10T21:13:03.147Z,999.90
2018-06-10T21:15:43.565Z,999.90
2018-06-10T21:18:25.804Z,999.90
2018-06-10T21:21:11.843Z,999.90
2018-06-10T21:23:58.445Z,968.17
2018-06-10T21:26:35.313Z,999.90
2018-06-10T21:29:16.010Z,994.40
2018-06-10T21:32:01.367Z,964.10
2018-06-10T21:34:45.348Z,951.50
2018-06-10T21:37:26.783Z,994.17
2018-06-10T21:40:12.409Z,951.67
2018-06-10T21:42:53.545Z,999.90
2018-06-10T21:45:35.988Z,999.90
2018-06-10T21:48:17.847Z,993.63
2018-06-10T21:50:59.706Z,999.90
2018-06-10T21:53:45.343Z,999.90
2018-06-10T21:56:27.290Z,893.73
2018-06-10T21:59:06.667Z,999.90
2018-06-10T22:01:46.515Z,817.83
2018-06-10T22:04:28.091Z,644.30
2018-06-10T22:07:12.732Z,626.03
2018-06-10T22:09:49.864Z,548.77
2018-06-10T22:34:39.535Z,458.47
2018-06-10T22:37:18.578Z,491.70
2018-06-10T22:40:00.973Z,795.67
2018-06-10T22:42:39.610Z,957.07
2018-06-10T22:45:24.820Z,999.90
2018-06-10T22:48:02.533Z,999.90
2018-06-10T22:50:42.511Z,999.90
2018-06-10T22:55:39.636Z,999.90
2018-06-10T22:58:19.174Z,999.90
2018-06-10T23:00:58.411Z,999.90
2018-06-10T23:03:40.240Z,999.90
2018-06-10T23:06:20.914Z,999.90
2018-06-10T23:09:00.890Z,999.90
2018-06-10T23:11:41.331Z,999.90
2018-06-10T23:14:21.739Z,999.90
2018-06-10T23:17:10.694Z,999.90
2018-06-10T23:19:51.078Z,999.90
2018-06-10T23:22:31.450Z,999.90
2018-06-10T23:25:11.457Z,999.90
2018-06-10T23:27:50.735Z,999.90
2018-06-10T23:30:29.619Z,999.90
2018-06-10T23:33:15.853Z,962.13
2018-06-10T23:35:54.417Z,942.03
2018-06-10T23:39:02.571Z,802.60
2018-06-10T23:41:40.974Z,794.00
2018-06-10T23:44:20.515Z,752.63
2018-06-10T23:47:00.219Z,696.40
2018-06-10T23:49:40.192Z,642.80
2018-06-10T23:52:18.430Z,644.97
2018-06-10T23:55:02.511Z,667.53
2018-06-10T23:57:48.892Z,668.87
